sensor_id;sensor_type;location;lat;lon;timestamp;pressure;altitude;pressure_sealevel;temperature;humidity
70254;BME280;57649;42.968;1.608;2023-06-10T00:02:20;96843.81;;;15.09;100.00
70254;BME280;57649;42.968;1.608;2023-06-10T00:04:45;96839.47;;;14.95;100.00
70254;BME280;57649;42.968;1.608;2023-06-10T00:07:11;96840.47;;;15.07;100.00
70254;BME280;57649;42.968;1.608;2023-06-10T00:09:37;96843.38;;;15.12;100.00
70254;BME280;57649;42.968;1.608;2023-06-10T00:12:07;96837.97;;;15.12;100.00
70254;BME280;57649;42.968;1.608;2023-06-10T00:14:38;96835.88;;;15.14;100.00
70254;BME280;57649;42.968;1.608;2023-06-10T00:17:04;96835.72;;;15.09;100.00
70254;BME280;57649;42.968;1.608;2023-06-10T00:19:30;96826.38;;;15.05;100.00
70254;BME280;57649;42.968;1.608;2023-06-10T00:21:56;96819.97;;;15.06;100.00
70254;BME280;57649;42.968;1.608;2023-06-10T00:24:22;96825.56;;;15.11;100.00
70254;BME280;57649;42.968;1.608;2023-06-10T00:26:48;96838.63;;;15.08;100.00
70254;BME280;57649;42.968;1.608;2023-06-10T00:29:13;96823.28;;;15.08;100.00
70254;BME280;57649;42.968;1.608;2023-06-10T00:31:39;96827.63;;;15.02;100.00
70254;BME280;57649;42.968;1.608;2023-06-10T00:34:06;96814.16;;;15.02;100.00
70254;BME280;57649;42.968;1.608;2023-06-10T00:36:32;96831.97;;;15.04;100.00
70254;BME280;57649;42.968;1.608;2023-06-10T00:38:57;96817.06;;;14.94;100.00
70254;BME280;57649;42.968;1.608;2023-06-10T00:41:23;96813.75;;;14.92;100.00
70254;BME280;57649;42.968;1.608;2023-06-10T00:43:48;96818.56;;;14.77;100.00
70254;BME280;57649;42.968;1.608;2023-06-10T00:46:14;96816.50;;;14.66;100.00
70254;BME280;57649;42.968;1.608;2023-06-10T00:48:41;96816.03;;;14.49;100.00
70254;BME280;57649;42.968;1.608;2023-06-10T00:51:07;96815.22;;;14.48;100.00
70254;BME280;57649;42.968;1.608;2023-06-10T00:53:35;96819.81;;;14.61;100.00
70254;BME280;57649;42.968;1.608;2023-06-10T00:56:02;96809.84;;;14.68;100.00
70254;BME280;57649;42.968;1.608;2023-06-10T00:58:28;96802.81;;;14.67;100.00
70254;BME280;57649;42.968;1.608;2023-06-10T01:00:53;96811.69;;;14.74;100.00
70254;BME280;57649;42.968;1.608;2023-06-10T01:03:19;96814.59;;;14.79;100.00
70254;BME280;57649;42.968;1.608;2023-06-10T01:05:52;96809.41;;;14.85;100.00
70254;BME280;57649;42.968;1.608;2023-06-10T01:08:36;96819.34;;;14.91;100.00
70254;BME280;57649;42.968;1.608;2023-06-10T01:11:07;96816.03;;;14.89;100.00
70254;BME280;57649;42.968;1.608;2023-06-10T01:13:33;96819.16;;;14.86;100.00
70254;BME280;57649;42.968;1.608;2023-06-10T01:16:01;96817.28;;;14.79;100.00
70254;BME280;57649;42.968;1.608;2023-06-10T01:18:30;96819.38;;;14.77;100.00
70254;BME280;57649;42.968;1.608;2023-06-10T01:20:56;96814.84;;;14.71;100.00
70254;BME280;57649;42.968;1.608;2023-06-10T01:23:22;96815.84;;;14.57;100.00
70254;BME280;57649;42.968;1.608;2023-06-10T01:26:00;96815.22;;;14.55;100.00
70254;BME280;57649;42.968;1.608;2023-06-10T01:33:37;96824.94;;;14.56;100.00
70254;BME280;57649;42.968;1.608;2023-06-10T01:36:04;96823.31;;;14.68;100.00
70254;BME280;57649;42.968;1.608;2023-06-10T01:38:37;96822.09;;;14.64;100.00
70254;BME280;57649;42.968;1.608;2023-06-10T01:41:04;96822.69;;;14.66;100.00
70254;BME280;57649;42.968;1.608;2023-06-10T01:43:34;96827.69;;;14.69;100.00
70254;BME280;57649;42.968;1.608;2023-06-10T01:46:00;96822.09;;;14.64;100.00
70254;BME280;57649;42.968;1.608;2023-06-10T01:48:26;96820.63;;;14.68;100.00
70254;BME280;57649;42.968;1.608;2023-06-10T01:50:52;96822.09;;;14.64;100.00
70254;BME280;57649;42.968;1.608;2023-06-10T01:53:18;96827.69;;;14.69;100.00
70254;BME280;57649;42.968;1.608;2023-06-10T01:55:44;96826.84;;;14.62;100.00
70254;BME280;57649;42.968;1.608;2023-06-10T01:58:09;96825.59;;;14.58;100.00
70254;BME280;57649;42.968;1.608;2023-06-10T02:00:35;96826.25;;;14.60;100.00
70254;BME280;57649;42.968;1.608;2023-06-10T02:03:00;96824.78;;;14.64;100.00
70254;BME280;57649;42.968;1.608;2023-06-10T02:05:25;96826.63;;;14.43;100.00
70254;BME280;57649;42.968;1.608;2023-06-10T02:07:51;96833.88;;;14.50;100.00
70254;BME280;57649;42.968;1.608;2023-06-10T02:10:16;96837.56;;;14.49;100.00
70254;BME280;57649;42.968;1.608;2023-06-10T02:12:41;96835.94;;;14.34;100.00
70254;BME280;57649;42.968;1.608;2023-06-10T02:15:07;96833.44;;;14.39;100.00
70254;BME280;57649;42.968;1.608;2023-06-10T02:17:32;96828.25;;;14.31;100.00
70254;BME280;57649;42.968;1.608;2023-06-10T02:19:58;96833.44;;;14.33;100.00
70254;BME280;57649;42.968;1.608;2023-06-10T02:22:25;96822.69;;;14.33;100.00
70254;BME280;57649;42.968;1.608;2023-06-10T02:24:50;96820.59;;;14.35;100.00
70254;BME280;57649;42.968;1.608;2023-06-10T02:27:16;96834.69;;;14.37;100.00
70254;BME280;57649;42.968;1.608;2023-06-10T02:29:41;96823.91;;;14.30;100.00
70254;BME280;57649;42.968;1.608;2023-06-10T02:32:07;96828.88;;;14.33;100.00
70254;BME280;57649;42.968;1.608;2023-06-10T02:34:33;96830.53;;;14.28;100.00
70254;BME280;57649;42.968;1.608;2023-06-10T02:36:59;96837.16;;;14.32;100.00
70254;BME280;57649;42.968;1.608;2023-06-10T02:39:24;96834.25;;;14.33;100.00
70254;BME280;57649;42.968;1.608;2023-06-10T02:41:50;96818.09;;;14.20;100.00
70254;BME280;57649;42.968;1.608;2023-06-10T02:44:18;96834.66;;;14.17;100.00
70254;BME280;57649;42.968;1.608;2023-06-10T02:46:43;96830.09;;;14.11;100.00
70254;BME280;57649;42.968;1.608;2023-06-10T02:49:09;96835.69;;;14.16;100.00
70254;BME280;57649;42.968;1.608;2023-06-10T02:51:34;96833.63;;;14.18;100.00
70254;BME280;57649;42.968;1.608;2023-06-10T02:54:01;96843.75;;;14.16;100.00
70254;BME280;57649;42.968;1.608;2023-06-10T02:56:26;96842.13;;;14.15;100.00
70254;BME280;57649;42.968;1.608;2023-06-10T02:58:52;96838.38;;;14.16;100.00
70254;BME280;57649;42.968;1.608;2023-06-10T03:01:17;96842.13;;;14.15;100.00
70254;BME280;57649;42.968;1.608;2023-06-10T03:03:44;96846.66;;;14.21;100.00
70254;BME280;57649;42.968;1.608;2023-06-10T03:06:10;96848.13;;;14.23;100.00
70254;BME280;57649;42.968;1.608;2023-06-10T03:08:36;96839.66;;;14.20;100.00
70254;BME280;57649;42.968;1.608;2023-06-10T03:11:02;96847.06;;;13.98;100.00
70254;BME280;57649;42.968;1.608;2023-06-10T03:13:28;96849.94;;;13.96;100.00
70254;BME280;57649;42.968;1.608;2023-06-10T03:15:53;96857.19;;;13.96;100.00
70254;BME280;57649;42.968;1.608;2023-06-10T03:18:18;96847.47;;;14.01;100.00
70254;BME280;57649;42.968;1.608;2023-06-10T03:20:44;96842.28;;;14.06;100.00
70254;BME280;57649;42.968;1.608;2023-06-10T03:23:09;96846.47;;;14.22;100.00
70254;BME280;57649;42.968;1.608;2023-06-10T03:25:35;96848.75;;;14.19;100.00
70254;BME280;57649;42.968;1.608;2023-06-10T03:28:00;96845.81;;;14.14;100.00
70254;BME280;57649;42.968;1.608;2023-06-10T03:30:27;96857.44;;;14.21;100.00
70254;BME280;57649;42.968;1.608;2023-06-10T03:32:53;96856.63;;;14.20;100.00
70254;BME280;57649;42.968;1.608;2023-06-10T03:35:18;96863.03;;;14.26;100.00
70254;BME280;57649;42.968;1.608;2023-06-10T03:37:44;96864.69;;;14.20;100.00
70254;BME280;57649;42.968;1.608;2023-06-10T03:40:10;96866.13;;;14.10;100.00
70254;BME280;57649;42.968;1.608;2023-06-10T03:42:36;96868.19;;;14.08;100.00
70254;BME280;57649;42.968;1.608;2023-06-10T03:45:02;96874.19;;;14.10;100.00
70254;BME280;57649;42.968;1.608;2023-06-10T03:47:36;96869.44;;;14.12;100.00
70254;BME280;57649;42.968;1.608;2023-06-10T03:50:03;96875.00;;;14.03;100.00
70254;BME280;57649;42.968;1.608;2023-06-10T03:52:29;96883.88;;;13.97;100.00
70254;BME280;57649;42.968;1.608;2023-06-10T03:54:54;96885.94;;;13.89;100.00
70254;BME280;57649;42.968;1.608;2023-06-10T03:57:20;96888.41;;;13.90;100.00
70254;BME280;57649;42.968;1.608;2023-06-10T03:59:45;96883.22;;;13.82;100.00
70254;BME280;57649;42.968;1.608;2023-06-10T04:02:10;96883.84;;;13.84;100.00
70254;BME280;57649;42.968;1.608;2023-06-10T04:04:36;96883.03;;;13.90;100.00
70254;BME280;57649;42.968;1.608;2023-06-10T04:07:03;96872.06;;;13.85;100.00
70254;BME280;57649;42.968;1.608;2023-06-10T04:09:28;96884.34;;;14.08;100.00
70254;BME280;57649;42.968;1.608;2023-06-10T04:11:54;96881.56;;;13.88;100.00
70254;BME280;57649;42.968;1.608;2023-06-10T04:14:19;96890.31;;;14.03;100.00
70254;BME280;57649;42.968;1.608;2023-06-10T04:16:44;96903.13;;;13.94;100.00
70254;BME280;57649;42.968;1.608;2023-06-10T04:19:10;96898.00;;;13.99;100.00
70254;BME280;57649;42.968;1.608;2023-06-10T04:21:35;96892.19;;;14.02;100.00
70254;BME280;57649;42.968;1.608;2023-06-10T04:24:01;96889.91;;;13.99;100.00
70254;BME280;57649;42.968;1.608;2023-06-10T04:26:27;96896.34;;;14.05;100.00
70254;BME280;57649;42.968;1.608;2023-06-10T04:28:53;96899.84;;;14.05;100.00
70254;BME280;57649;42.968;1.608;2023-06-10T04:31:18;96891.56;;;14.00;100.00
70254;BME280;57649;42.968;1.608;2023-06-10T04:33:44;96894.22;;;13.87;100.00
70254;BME280;57649;42.968;1.608;2023-06-10T04:36:10;96896.28;;;13.85;100.00
70254;BME280;57649;42.968;1.608;2023-06-10T04:38:35;96904.94;;;13.74;100.00
70254;BME280;57649;42.968;1.608;2023-06-10T04:41:01;96909.03;;;13.70;100.00
70254;BME280;57649;42.968;1.608;2023-06-10T04:43:26;96906.53;;;13.68;100.00
70254;BME280;57649;42.968;1.608;2023-06-10T04:45:54;96909.66;;;13.72;100.00
70254;BME280;57649;42.968;1.608;2023-06-10T04:48:19;96900.38;;;13.81;100.00
70254;BME280;57649;42.968;1.608;2023-06-10T04:50:44;96913.66;;;13.89;100.00
70254;BME280;57649;42.968;1.608;2023-06-10T04:53:10;96909.53;;;13.86;100.00
70254;BME280;57649;42.968;1.608;2023-06-10T04:55:35;96917.03;;;13.98;100.00
70254;BME280;57649;42.968;1.608;2023-06-10T04:58:01;96913.72;;;14.02;100.00
70254;BME280;57649;42.968;1.608;2023-06-10T05:00:27;96913.09;;;14.00;100.00
70254;BME280;57649;42.968;1.608;2023-06-10T05:02:52;96919.06;;;13.89;100.00
70254;BME280;57649;42.968;1.608;2023-06-10T05:05:18;96913.63;;;13.82;100.00
70254;BME280;57649;42.968;1.608;2023-06-10T05:07:44;96919.25;;;13.88;100.00
70254;BME280;57649;42.968;1.608;2023-06-10T05:10:10;96922.75;;;13.81;100.00
70254;BME280;57649;42.968;1.608;2023-06-10T05:12:38;96937.06;;;13.95;100.00
70254;BME280;57649;42.968;1.608;2023-06-10T05:15:05;96936.44;;;13.93;100.00
70254;BME280;57649;42.968;1.608;2023-06-10T05:17:30;96928.81;;;13.97;100.00
70254;BME280;57649;42.968;1.608;2023-06-10T05:19:55;96928.13;;;13.88;100.00
70254;BME280;57649;42.968;1.608;2023-06-10T05:22:21;96929.19;;;13.87;100.00
70254;BME280;57649;42.968;1.608;2023-06-10T05:24:49;96929.00;;;13.89;100.00
70254;BME280;57649;42.968;1.608;2023-06-10T05:27:14;96932.53;;;13.96;100.00
70254;BME280;57649;42.968;1.608;2023-06-10T05:29:40;96936.09;;;14.10;100.00
70254;BME280;57649;42.968;1.608;2023-06-10T05:32:06;96942.09;;;14.12;100.00
70254;BME280;57649;42.968;1.608;2023-06-10T05:34:31;96933.16;;;14.04;100.00
70254;BME280;57649;42.968;1.608;2023-06-10T05:36:57;96938.19;;;14.14;100.00
70254;BME280;57649;42.968;1.608;2023-06-10T05:39:22;96931.97;;;14.14;100.00
70254;BME280;57649;42.968;1.608;2023-06-10T05:41:48;96929.50;;;14.12;100.00
70254;BME280;57649;42.968;1.608;2023-06-10T05:44:13;96921.63;;;14.11;100.00
70254;BME280;57649;42.968;1.608;2023-06-10T05:46:38;96932.22;;;14.25;100.00
70254;BME280;57649;42.968;1.608;2023-06-10T05:49:04;96935.13;;;14.31;100.00
70254;BME280;57649;42.968;1.608;2023-06-10T05:51:29;96927.47;;;14.41;100.00
70254;BME280;57649;42.968;1.608;2023-06-10T05:53:55;96927.31;;;14.49;100.00
70254;BME280;57649;42.968;1.608;2023-06-10T05:56:20;96926.69;;;14.54;100.00
70254;BME280;57649;42.968;1.608;2023-06-10T05:58:48;96933.78;;;14.68;100.00
70254;BME280;57649;42.968;1.608;2023-06-10T06:01:13;96925.06;;;14.66;100.00
70254;BME280;57649;42.968;1.608;2023-06-10T06:03:38;96932.53;;;14.77;100.00
70254;BME280;57649;42.968;1.608;2023-06-10T06:06:04;96923.00;;;14.88;100.00
70254;BME280;57649;42.968;1.608;2023-06-10T06:08:30;96919.28;;;14.82;100.00
70254;BME280;57649;42.968;1.608;2023-06-10T06:10:55;96925.09;;;14.93;100.00
70254;BME280;57649;42.968;1.608;2023-06-10T06:13:20;96920.72;;;15.05;100.00
70254;BME280;57649;42.968;1.608;2023-06-10T06:15:46;96928.81;;;15.18;100.00
70254;BME280;57649;42.968;1.608;2023-06-10T06:18:11;96927.53;;;15.34;100.00
70254;BME280;57649;42.968;1.608;2023-06-10T06:20:37;96935.19;;;15.51;100.00
70254;BME280;57649;42.968;1.608;2023-06-10T06:23:02;96940.56;;;15.57;100.00
70254;BME280;57649;42.968;1.608;2023-06-10T06:25:27;96934.13;;;15.58;100.00
70254;BME280;57649;42.968;1.608;2023-06-10T06:27:53;96930.16;;;15.68;100.00
70254;BME280;57649;42.968;1.608;2023-06-10T06:30:18;96932.25;;;15.79;100.00
70254;BME280;57649;42.968;1.608;2023-06-10T06:32:44;96938.69;;;15.78;100.00
70254;BME280;57649;42.968;1.608;2023-06-10T06:35:10;96925.38;;;15.83;100.00
70254;BME280;57649;42.968;1.608;2023-06-10T06:37:35;96937.19;;;15.89;100.00
70254;BME280;57649;42.968;1.608;2023-06-10T06:40:01;96932.81;;;15.94;100.00
70254;BME280;57649;42.968;1.608;2023-06-10T06:42:26;96936.13;;;15.96;100.00
70254;BME280;57649;42.968;1.608;2023-06-10T06:44:52;96935.50;;;15.94;100.00
70254;BME280;57649;42.968;1.608;2023-06-10T06:47:17;96931.31;;;16.05;100.00
70254;BME280;57649;42.968;1.608;2023-06-10T06:49:48;96936.50;;;16.07;100.00
70254;BME280;57649;42.968;1.608;2023-06-10T06:52:15;96925.88;;;16.12;100.00
70254;BME280;57649;42.968;1.608;2023-06-10T06:54:40;96931.84;;;16.21;100.00
70254;BME280;57649;42.968;1.608;2023-06-10T06:57:06;96930.94;;;16.40;100.00
70254;BME280;57649;42.968;1.608;2023-06-10T06:59:32;96935.06;;;16.43;100.00
70254;BME280;57649;42.968;1.608;2023-06-10T07:01:58;96939.25;;;16.39;100.00
70254;BME280;57649;42.968;1.608;2023-06-10T07:04:23;96938.75;;;16.48;100.00
70254;BME280;57649;42.968;1.608;2023-06-10T07:06:49;96937.94;;;16.48;100.00
70254;BME280;57649;42.968;1.608;2023-06-10T07:09:14;96938.31;;;16.58;100.00
70254;BME280;57649;42.968;1.608;2023-06-10T07:11:40;96933.22;;;16.68;100.00
70254;BME280;57649;42.968;1.608;2023-06-10T07:14:06;96932.75;;;16.78;100.00
70254;BME280;57649;42.968;1.608;2023-06-10T07:16:31;96938.31;;;16.90;100.00
70254;BME280;57649;42.968;1.608;2023-06-10T07:18:57;96931.75;;;17.04;100.00
70254;BME280;57649;42.968;1.608;2023-06-10T07:21:22;96935.63;;;17.15;100.00
70254;BME280;57649;42.968;1.608;2023-06-10T07:23:48;96930.19;;;17.40;100.00
70254;BME280;57649;42.968;1.608;2023-06-10T07:26:14;96932.44;;;17.62;100.00
70254;BME280;57649;42.968;1.608;2023-06-10T07:28:41;96939.88;;;18.10;97.48
70254;BME280;57649;42.968;1.608;2023-06-10T07:31:07;96943.97;;;18.61;94.47
70254;BME280;57649;42.968;1.608;2023-06-10T07:33:33;96946.72;;;19.03;90.71
70254;BME280;57649;42.968;1.608;2023-06-10T07:35:58;96944.38;;;19.66;86.61
70254;BME280;57649;42.968;1.608;2023-06-10T07:38:25;96942.00;;;20.34;85.58
70254;BME280;57649;42.968;1.608;2023-06-10T07:40:51;96935.97;;;20.72;84.25
70254;BME280;57649;42.968;1.608;2023-06-10T07:43:16;96941.78;;;21.44;80.03
70254;BME280;57649;42.968;1.608;2023-06-10T07:45:43;96942.53;;;21.95;76.92
70254;BME280;57649;42.968;1.608;2023-06-10T07:48:08;96929.88;;;22.06;77.62
70254;BME280;57649;42.968;1.608;2023-06-10T07:50:34;96935.81;;;22.03;78.27
70254;BME280;57649;42.968;1.608;2023-06-10T07:53:00;96922.66;;;22.17;77.13
70254;BME280;57649;42.968;1.608;2023-06-10T07:55:25;96942.75;;;22.33;79.00
70254;BME280;57649;42.968;1.608;2023-06-10T07:57:54;96940.28;;;22.53;75.93
70254;BME280;57649;42.968;1.608;2023-06-10T08:00:20;96940.25;;;22.80;72.86
70254;BME280;57649;42.968;1.608;2023-06-10T08:02:46;96941.13;;;23.13;75.55
70254;BME280;57649;42.968;1.608;2023-06-10T08:05:11;96944.91;;;23.39;73.22
70254;BME280;57649;42.968;1.608;2023-06-10T08:07:36;96941.50;;;23.59;70.28
70254;BME280;57649;42.968;1.608;2023-06-10T08:10:02;96944.25;;;23.64;72.48
70254;BME280;57649;42.968;1.608;2023-06-10T08:12:29;96943.72;;;23.68;72.54
70254;BME280;57649;42.968;1.608;2023-06-10T08:14:54;96944.94;;;23.82;72.06
70254;BME280;57649;42.968;1.608;2023-06-10T08:17:20;96946.03;;;23.81;70.42
70254;BME280;57649;42.968;1.608;2023-06-10T08:19:45;96943.19;;;24.13;68.27
70254;BME280;57649;42.968;1.608;2023-06-10T08:22:11;96944.41;;;24.43;68.59
70254;BME280;57649;42.968;1.608;2023-06-10T08:24:36;96943.66;;;24.58;68.67
70254;BME280;57649;42.968;1.608;2023-06-10T08:27:02;96947.78;;;24.66;68.78
70254;BME280;57649;42.968;1.608;2023-06-10T08:29:27;96948.09;;;24.79;69.72
70254;BME280;57649;42.968;1.608;2023-06-10T08:31:52;96944.78;;;24.72;67.23
70254;BME280;57649;42.968;1.608;2023-06-10T08:34:18;96940.47;;;25.12;66.75
70254;BME280;57649;42.968;1.608;2023-06-10T08:36:44;96950.03;;;25.20;66.32
70254;BME280;57649;42.968;1.608;2023-06-10T08:39:10;96945.09;;;25.22;66.08
70254;BME280;57649;42.968;1.608;2023-06-10T08:41:41;96947.06;;;25.27;65.97
70254;BME280;57649;42.968;1.608;2023-06-10T08:44:12;96947.59;;;25.65;65.44
70254;BME280;57649;42.968;1.608;2023-06-10T08:46:44;96956.34;;;25.77;64.05
70254;BME280;57649;42.968;1.608;2023-06-10T08:49:10;96951.91;;;25.91;62.68
70254;BME280;57649;42.968;1.608;2023-06-10T08:51:40;96950.19;;;26.26;60.11
70254;BME280;57649;42.968;1.608;2023-06-10T08:54:13;96949.66;;;26.24;62.27
70254;BME280;57649;42.968;1.608;2023-06-10T08:56:40;96951.47;;;26.49;60.93
70254;BME280;57649;42.968;1.608;2023-06-10T08:59:07;96948.38;;;26.66;60.40
70254;BME280;57649;42.968;1.608;2023-06-10T09:01:34;96953.81;;;26.17;61.33
70254;BME280;57649;42.968;1.608;2023-06-10T09:04:00;96952.66;;;26.23;57.05
70254;BME280;57649;42.968;1.608;2023-06-10T09:06:27;96950.69;;;26.44;57.02
70254;BME280;57649;42.968;1.608;2023-06-10T09:08:52;96952.09;;;26.31;57.46
70254;BME280;57649;42.968;1.608;2023-06-10T09:11:18;96965.56;;;26.27;58.54
70254;BME280;57649;42.968;1.608;2023-06-10T09:13:43;96955.47;;;26.18;57.17
70254;BME280;57649;42.968;1.608;2023-06-10T09:16:09;96965.13;;;25.69;58.32
70254;BME280;57649;42.968;1.608;2023-06-10T09:18:37;96958.78;;;25.84;58.09
70254;BME280;57649;42.968;1.608;2023-06-10T09:21:02;96965.81;;;26.31;59.57
70254;BME280;57649;42.968;1.608;2023-06-10T09:23:28;96961.81;;;25.98;59.60
70254;BME280;57649;42.968;1.608;2023-06-10T09:25:57;96959.22;;;26.37;58.64
70254;BME280;57649;42.968;1.608;2023-06-10T09:28:23;96954.25;;;26.44;58.22
70254;BME280;57649;42.968;1.608;2023-06-10T09:30:49;96951.88;;;26.17;58.22
70254;BME280;57649;42.968;1.608;2023-06-10T09:33:15;96956.63;;;26.66;57.50
70254;BME280;57649;42.968;1.608;2023-06-10T09:35:49;96951.94;;;26.02;58.43
70254;BME280;57649;42.968;1.608;2023-06-10T09:38:19;96954.03;;;26.30;59.11
70254;BME280;57649;42.968;1.608;2023-06-10T09:40:53;96948.81;;;26.34;56.90
70254;BME280;57649;42.968;1.608;2023-06-10T09:43:19;96949.56;;;26.45;58.15
70254;BME280;57649;42.968;1.608;2023-06-10T09:45:47;96955.16;;;26.19;59.14
70254;BME280;57649;42.968;1.608;2023-06-10T09:48:13;96949.75;;;25.78;58.86
70254;BME280;57649;42.968;1.608;2023-06-10T09:50:43;96945.41;;;25.51;59.30
70254;BME280;57649;42.968;1.608;2023-06-10T09:53:12;96945.41;;;25.26;61.32
70254;BME280;57649;42.968;1.608;2023-06-10T09:55:38;96952.28;;;25.54;59.43
70254;BME280;57649;42.968;1.608;2023-06-10T09:58:04;96947.06;;;25.42;60.37
70254;BME280;57649;42.968;1.608;2023-06-10T10:00:32;96941.22;;;26.10;58.41
70254;BME280;57649;42.968;1.608;2023-06-10T10:02:58;96936.97;;;26.39;58.36
70254;BME280;57649;42.968;1.608;2023-06-10T10:05:24;96936.97;;;26.39;59.34
70254;BME280;57649;42.968;1.608;2023-06-10T10:07:50;96928.09;;;26.62;57.27
70254;BME280;57649;42.968;1.608;2023-06-10T10:10:18;96932.66;;;26.82;56.10
70254;BME280;57649;42.968;1.608;2023-06-10T10:12:46;96929.50;;;26.55;56.71
70254;BME280;57649;42.968;1.608;2023-06-10T10:15:11;96925.50;;;26.26;56.97
70254;BME280;57649;42.968;1.608;2023-06-10T10:17:40;96926.25;;;26.92;55.57
70254;BME280;57649;42.968;1.608;2023-06-10T10:20:07;96927.78;;;27.08;54.60
70254;BME280;57649;42.968;1.608;2023-06-10T10:22:43;96934.53;;;26.32;55.80
70254;BME280;57649;42.968;1.608;2023-06-10T10:25:17;96927.78;;;27.08;55.98
70254;BME280;57649;42.968;1.608;2023-06-10T10:28:10;96933.75;;;27.26;53.46
70254;BME280;57649;42.968;1.608;2023-06-10T10:30:40;96939.09;;;27.41;53.44
70254;BME280;57649;42.968;1.608;2023-06-10T10:33:15;96929.41;;;27.49;54.14
70254;BME280;57649;42.968;1.608;2023-06-10T10:35:43;96927.44;;;27.55;53.54
70254;BME280;57649;42.968;1.608;2023-06-10T10:38:11;96928.34;;;27.45;52.74
70254;BME280;57649;42.968;1.608;2023-06-10T10:40:37;96926.41;;;27.45;52.59
70254;BME280;57649;42.968;1.608;2023-06-10T10:43:03;96928.44;;;27.64;52.31
70254;BME280;57649;42.968;1.608;2023-06-10T10:45:29;96926.03;;;27.87;52.63
70254;BME280;57649;42.968;1.608;2023-06-10T10:47:55;96925.19;;;26.88;54.22
70254;BME280;57649;42.968;1.608;2023-06-10T10:50:24;96922.56;;;27.46;53.45
70254;BME280;57649;42.968;1.608;2023-06-10T10:53:02;96926.13;;;27.76;52.74
70254;BME280;57649;42.968;1.608;2023-06-10T10:55:28;96919.19;;;27.55;52.59
70254;BME280;57649;42.968;1.608;2023-06-10T10:58:05;96921.03;;;27.64;53.15
70254;BME280;57649;42.968;1.608;2023-06-10T11:00:32;96920.50;;;27.92;52.94
70254;BME280;57649;42.968;1.608;2023-06-10T11:03:06;96913.69;;;27.55;54.55
70254;BME280;57649;42.968;1.608;2023-06-10T11:08:10;96908.72;;;27.27;52.69
70254;BME280;57649;42.968;1.608;2023-06-10T11:10:37;96915.31;;;26.87;56.77
70254;BME280;57649;42.968;1.608;2023-06-10T11:13:13;96907.25;;;27.70;53.32
70254;BME280;57649;42.968;1.608;2023-06-10T11:15:43;96903.63;;;28.22;51.47
70254;BME280;57649;42.968;1.608;2023-06-10T11:29:04;96901.31;;;28.30;51.55
70254;BME280;57649;42.968;1.608;2023-06-10T11:31:49;96898.09;;;28.22;51.37
70254;BME280;57649;42.968;1.608;2023-06-10T11:34:15;96899.31;;;27.92;53.15
70254;BME280;57649;42.968;1.608;2023-06-10T11:36:48;96894.59;;;28.41;51.40
70254;BME280;57649;42.968;1.608;2023-06-10T11:39:14;96902.03;;;28.16;51.48
70254;BME280;57649;42.968;1.608;2023-06-10T11:41:40;96902.06;;;27.63;52.02
70254;BME280;57649;42.968;1.608;2023-06-10T11:46:34;96895.88;;;27.76;51.92
70254;BME280;57649;42.968;1.608;2023-06-10T11:49:00;96889.25;;;28.07;50.10
70254;BME280;57649;42.968;1.608;2023-06-10T11:51:29;96889.94;;;27.64;51.66
70254;BME280;57649;42.968;1.608;2023-06-10T11:53:55;96883.03;;;27.42;52.30
70254;BME280;57649;42.968;1.608;2023-06-10T11:56:27;96881.53;;;27.21;52.39
70254;BME280;57649;42.968;1.608;2023-06-10T12:01:29;96889.19;;;26.45;53.54
70254;BME280;57649;42.968;1.608;2023-06-10T12:04:09;96879.38;;;27.18;52.15
70254;BME280;57649;42.968;1.608;2023-06-10T12:06:50;96876.75;;;27.02;53.22
70254;BME280;57649;42.968;1.608;2023-06-10T12:09:25;96881.38;;;26.73;53.16
70254;BME280;57649;42.968;1.608;2023-06-10T12:14:50;96881.56;;;26.81;53.32
70254;BME280;57649;42.968;1.608;2023-06-10T12:17:16;96868.53;;;27.02;51.62
70254;BME280;57649;42.968;1.608;2023-06-10T12:19:41;96863.53;;;27.68;51.33
70254;BME280;57649;42.968;1.608;2023-06-10T12:22:07;96859.97;;;28.16;50.21
70254;BME280;57649;42.968;1.608;2023-06-10T12:24:32;96850.84;;;27.96;49.86
70254;BME280;57649;42.968;1.608;2023-06-10T12:26:58;96853.31;;;28.41;50.67
70254;BME280;57649;42.968;1.608;2023-06-10T12:29:24;96849.03;;;28.30;48.75
70254;BME280;57649;42.968;1.608;2023-06-10T12:32:01;96851.81;;;27.57;50.93
70254;BME280;57649;42.968;1.608;2023-06-10T12:34:34;96845.72;;;27.90;51.17
70254;BME280;57649;42.968;1.608;2023-06-10T12:37:01;96840.06;;;28.00;49.93
70254;BME280;57649;42.968;1.608;2023-06-10T12:39:30;96844.94;;;27.31;50.12
70254;BME280;57649;42.968;1.608;2023-06-10T12:41:55;96840.81;;;27.81;50.39
70254;BME280;57649;42.968;1.608;2023-06-10T12:44:35;96842.50;;;28.26;48.74
70254;BME280;57649;42.968;1.608;2023-06-10T12:47:07;96841.56;;;27.87;49.15
70254;BME280;57649;42.968;1.608;2023-06-10T12:49:33;96843.00;;;28.09;49.30
70254;BME280;57649;42.968;1.608;2023-06-10T12:52:00;96838.41;;;28.23;48.23
70254;BME280;57649;42.968;1.608;2023-06-10T12:54:26;96838.78;;;28.73;48.36
70254;BME280;57649;42.968;1.608;2023-06-10T12:56:51;96838.06;;;27.81;49.17
70254;BME280;57649;42.968;1.608;2023-06-10T12:59:18;96839.66;;;27.05;51.93
70254;BME280;57649;42.968;1.608;2023-06-10T13:01:44;96842.56;;;27.19;49.43
70254;BME280;57649;42.968;1.608;2023-06-10T13:04:10;96830.84;;;27.08;50.46
70254;BME280;57649;42.968;1.608;2023-06-10T13:06:35;96837.50;;;27.60;50.13
70254;BME280;57649;42.968;1.608;2023-06-10T13:09:04;96834.34;;;27.96;50.49
70254;BME280;57649;42.968;1.608;2023-06-10T13:11:31;96835.47;;;27.42;50.29
70254;BME280;57649;42.968;1.608;2023-06-10T13:13:57;96829.22;;;27.36;50.98
70254;BME280;57649;42.968;1.608;2023-06-10T13:16:22;96835.88;;;26.61;51.73
70254;BME280;57649;42.968;1.608;2023-06-10T13:18:48;96836.09;;;26.70;51.05
70254;BME280;57649;42.968;1.608;2023-06-10T13:21:13;96827.88;;;27.58;49.92